createdAt,value
2023-05-20T00:00:21.904Z,12.80
2023-05-20T00:02:49.019Z,12.80
2023-05-20T00:05:16.376Z,12.80
2023-05-20T00:07:43.411Z,12.70
2023-05-20T00:10:16.762Z,12.70
2023-05-20T00:12:43.890Z,12.70
2023-05-20T00:15:12.400Z,12.70
2023-05-20T00:18:23.270Z,12.70
2023-05-20T00:20:50.304Z,12.60
2023-05-20T00:23:17.371Z,12.60
2023-05-20T00:25:45.692Z,12.60
2023-05-20T00:28:12.819Z,12.60
2023-05-20T00:30:43.916Z,12.60
2023-05-20T00:33:17.022Z,12.60
2023-05-20T00:35:44.065Z,12.60
2023-05-20T00:38:11.243Z,12.50
2023-05-20T00:40:41.284Z,12.60
2023-05-20T00:43:08.352Z,12.50
2023-05-20T00:45:36.313Z,12.40
2023-05-20T00:48:41.404Z,12.40
2023-05-20T00:51:08.794Z,12.30
2023-05-20T00:53:36.955Z,12.30
2023-05-20T00:56:41.286Z,12.20
2023-05-20T00:59:08.893Z,12.20
2023-05-20T01:01:35.992Z,12.10
2023-05-20T01:04:22.100Z,12.00
2023-05-20T01:06:49.897Z,12.00
2023-05-20T01:09:16.969Z,11.90
2023-05-20T01:12:02.798Z,11.80
2023-05-20T01:14:36.453Z,11.80
2023-05-20T01:19:56.724Z,11.80
2023-05-20T01:22:28.034Z,11.80
2023-05-20T01:24:55.051Z,11.70
2023-05-20T01:27:23.640Z,11.70
2023-05-20T01:29:53.041Z,11.80
2023-05-20T01:32:38.954Z,11.80
2023-05-20T01:35:07.443Z,11.80
2023-05-20T01:37:39.731Z,11.70
2023-05-20T01:40:23.574Z,11.70
2023-05-20T01:42:53.662Z,11.60
2023-05-20T01:45:21.320Z,11.60
2023-05-20T01:48:38.465Z,11.60
2023-05-20T01:51:05.540Z,11.60
2023-05-20T01:53:32.593Z,11.50
2023-05-20T01:56:02.768Z,11.50
2023-05-20T01:58:30.172Z,11.50
2023-05-20T02:00:57.225Z,11.60
2023-05-20T02:03:26.768Z,11.60
2023-05-20T02:05:53.883Z,11.50
2023-05-20T02:08:26.793Z,11.50
2023-05-20T02:10:53.796Z,11.50
2023-05-20T02:13:20.970Z,11.50
2023-05-20T02:15:59.978Z,11.50
2023-05-20T02:18:27.149Z,11.50
2023-05-20T02:20:54.201Z,11.50
2023-05-20T02:23:23.232Z,11.50
2023-05-20T02:25:50.292Z,11.60
2023-05-20T02:28:17.371Z,11.60
2023-05-20T02:30:45.587Z,11.50
2023-05-20T02:33:12.820Z,11.60
2023-05-20T02:35:40.395Z,11.60
2023-05-20T02:38:07.476Z,11.60
2023-05-20T02:40:34.711Z,11.60
2023-05-20T02:43:02.066Z,11.70
2023-05-20T02:45:47.818Z,11.60
2023-05-20T02:48:14.806Z,11.60
2023-05-20T02:50:45.620Z,11.60
2023-05-20T02:53:12.664Z,11.60
2023-05-20T02:55:41.129Z,11.60
2023-05-20T02:58:08.419Z,11.60
2023-05-20T03:00:41.202Z,11.60
2023-05-20T03:03:10.311Z,11.60
2023-05-20T03:05:46.190Z,11.70
2023-05-20T03:08:13.678Z,11.70
2023-05-20T03:10:41.850Z,11.60
2023-05-20T03:13:11.320Z,11.60
2023-05-20T03:15:42.666Z,11.60
2023-05-20T03:18:09.984Z,11.60
2023-05-20T03:20:37.081Z,11.60
2023-05-20T03:23:04.971Z,11.60
2023-05-20T03:25:32.471Z,11.70
2023-05-20T03:28:00.053Z,11.70
2023-05-20T03:30:28.177Z,11.70
2023-05-20T03:32:58.016Z,11.70
2023-05-20T03:35:26.665Z,11.70
2023-05-20T03:37:53.805Z,11.70
2023-05-20T03:40:21.392Z,11.70
2023-05-20T03:42:50.028Z,11.70
2023-05-20T03:45:17.096Z,11.70
2023-05-20T03:47:44.172Z,11.70
2023-05-20T03:50:11.743Z,11.80
2023-05-20T03:52:38.775Z,11.80
2023-05-20T03:55:06.498Z,11.80
2023-05-20T03:57:34.122Z,11.80
2023-05-20T04:00:02.474Z,11.80
2023-05-20T04:02:31.777Z,11.90
2023-05-20T04:05:01.563Z,11.90
2023-05-20T04:07:30.181Z,12.00
2023-05-20T04:09:57.379Z,12.00
2023-05-20T04:12:26.164Z,12.00
2023-05-20T04:14:55.861Z,12.10
2023-05-20T04:17:22.843Z,12.10
2023-05-20T04:19:49.868Z,12.10
2023-05-20T04:22:16.913Z,12.10
2023-05-20T04:24:43.984Z,12.10
2023-05-20T04:27:12.107Z,12.10
2023-05-20T04:29:41.749Z,12.20
2023-05-20T04:32:11.169Z,12.30
2023-05-20T04:34:39.169Z,12.40
2023-05-20T04:37:09.744Z,12.50
2023-05-20T04:39:36.848Z,12.60
2023-05-20T04:42:05.281Z,12.80
2023-05-20T04:44:32.560Z,12.90
2023-05-20T04:46:59.784Z,13.10
2023-05-20T04:49:26.880Z,13.20
2023-05-20T04:51:55.718Z,13.30
2023-05-20T04:54:22.734Z,13.40
2023-05-20T04:56:50.015Z,13.50
2023-05-20T04:59:17.629Z,13.40
2023-05-20T05:01:44.919Z,13.50
2023-05-20T05:04:12.064Z,13.60
2023-05-20T05:06:41.369Z,13.70
2023-05-20T05:09:08.440Z,13.70
2023-05-20T05:11:35.558Z,13.70
2023-05-20T05:14:02.726Z,13.80
2023-05-20T05:16:29.828Z,13.80
2023-05-20T05:18:56.953Z,13.80
2023-05-20T05:21:25.055Z,13.80
2023-05-20T05:23:52.052Z,14.30
2023-05-20T05:26:19.156Z,14.80
2023-05-20T05:28:46.293Z,15.50
2023-05-20T05:31:13.568Z,16.70
2023-05-20T05:33:40.621Z,19.20
2023-05-20T05:36:07.815Z,19.40
2023-05-20T05:38:36.488Z,19.10
2023-05-20T05:41:03.595Z,19.70
2023-05-20T05:43:30.929Z,20.70
2023-05-20T05:45:59.029Z,19.70
2023-05-20T05:48:26.139Z,18.70
2023-05-20T05:50:53.634Z,17.40
2023-05-20T05:53:20.742Z,16.10
2023-05-20T05:55:47.830Z,15.60
2023-05-20T05:58:15.041Z,16.20
2023-05-20T06:00:42.105Z,17.70
2023-05-20T06:03:09.519Z,19.60
2023-05-20T06:05:36.805Z,21.90
2023-05-20T06:08:04.288Z,22.30
2023-05-20T06:10:31.349Z,23.20
2023-05-20T06:12:58.439Z,23.60
2023-05-20T06:15:26.029Z,23.10
2023-05-20T06:17:53.256Z,23.30
2023-05-20T06:20:20.444Z,24.30
2023-05-20T06:22:47.527Z,23.80
2023-05-20T06:25:14.853Z,24.30
2023-05-20T06:27:41.994Z,24.70
2023-05-20T06:30:09.497Z,25.10
2023-05-20T06:32:36.576Z,26.70
2023-05-20T06:35:03.932Z,26.70
2023-05-20T06:37:31.181Z,27.30
2023-05-20T06:39:58.355Z,26.50
2023-05-20T06:42:25.376Z,26.40
2023-05-20T06:44:52.425Z,24.80
2023-05-20T06:47:19.907Z,24.40
2023-05-20T06:49:47.739Z,24.90
2023-05-20T06:52:15.060Z,24.70
2023-05-20T06:54:42.394Z,24.50
2023-05-20T06:57:10.004Z,24.70
2023-05-20T06:59:41.819Z,24.10
2023-05-20T07:02:08.984Z,23.20
2023-05-20T07:04:36.236Z,24.60
2023-05-20T07:07:03.418Z,25.70
2023-05-20T07:09:30.656Z,26.90
2023-05-20T07:11:57.658Z,26.70
2023-05-20T07:14:24.896Z,26.60
2023-05-20T07:16:52.055Z,24.20
2023-05-20T07:19:19.176Z,25.10
2023-05-20T07:21:47.571Z,25.10
2023-05-20T07:24:14.662Z,24.60
2023-05-20T07:26:41.777Z,24.50
2023-05-20T07:29:10.694Z,25.00
2023-05-20T07:31:37.925Z,24.20
2023-05-20T07:34:05.218Z,23.80
2023-05-20T07:36:32.719Z,24.90
2023-05-20T07:39:04.236Z,23.90
2023-05-20T07:41:33.447Z,24.60
2023-05-20T07:44:03.330Z,24.10
2023-05-20T07:46:30.638Z,22.00
2023-05-20T07:48:57.937Z,21.50
2023-05-20T07:51:25.050Z,21.90
2023-05-20T07:53:52.184Z,21.20
2023-05-20T07:56:19.232Z,20.90
2023-05-20T07:58:54.214Z,21.20
2023-05-20T08:01:21.474Z,21.70
2023-05-20T08:03:48.631Z,21.20
2023-05-20T08:06:16.004Z,20.70
2023-05-20T08:08:43.685Z,20.20
2023-05-20T08:11:10.765Z,20.10
2023-05-20T08:13:37.818Z,19.80
2023-05-20T08:16:06.096Z,19.90
2023-05-20T08:18:34.634Z,20.30
2023-05-20T08:21:02.134Z,21.00
2023-05-20T08:23:29.850Z,21.70
2023-05-20T08:25:57.778Z,22.00
2023-05-20T08:28:24.866Z,22.00
2023-05-20T08:30:52.183Z,22.40
2023-05-20T08:33:19.701Z,22.50
2023-05-20T08:35:46.733Z,22.10
2023-05-20T08:38:13.924Z,21.80
2023-05-20T08:40:41.111Z,21.90
2023-05-20T08:43:08.338Z,22.20
2023-05-20T08:45:38.753Z,22.40
2023-05-20T08:48:07.119Z,22.40
2023-05-20T08:50:35.123Z,22.80
2023-05-20T08:53:02.580Z,23.10
2023-05-20T08:55:43.088Z,22.10
2023-05-20T08:58:10.780Z,21.50
2023-05-20T09:00:38.580Z,20.70
2023-05-20T09:03:05.694Z,20.10
2023-05-20T09:05:32.961Z,19.70
2023-05-20T09:08:11.463Z,19.60
2023-05-20T09:10:42.216Z,19.90
2023-05-20T09:13:10.505Z,20.10
2023-05-20T09:15:38.090Z,20.40
2023-05-20T09:18:08.067Z,21.30
2023-05-20T09:20:37.538Z,21.40
2023-05-20T09:23:06.800Z,21.30
2023-05-20T09:25:34.843Z,21.10
2023-05-20T09:28:07.723Z,20.90
2023-05-20T09:30:35.091Z,20.60
2023-05-20T09:33:05.385Z,20.20
2023-05-20T09:35:38.851Z,20.50
2023-05-20T09:38:09.754Z,20.70
2023-05-20T09:40:38.139Z,21.00
2023-05-20T09:43:11.601Z,21.80
2023-05-20T09:45:39.168Z,22.80
2023-05-20T09:48:09.129Z,23.70
2023-05-20T09:50:36.945Z,23.60
2023-05-20T09:53:04.932Z,23.40
2023-05-20T09:55:33.459Z,22.70
2023-05-20T09:58:04.291Z,22.90
2023-05-20T10:00:31.775Z,23.50
2023-05-20T10:03:00.322Z,23.60
2023-05-20T10:05:36.914Z,23.10
2023-05-20T10:08:26.080Z,23.10
2023-05-20T10:11:28.395Z,23.60
2023-05-20T10:14:29.172Z,23.90
2023-05-20T10:17:28.051Z,24.50
2023-05-20T10:19:59.898Z,24.00
2023-05-20T10:22:32.053Z,23.90
2023-05-20T10:25:00.805Z,24.60
2023-05-20T10:27:27.874Z,24.30
2023-05-20T10:29:57.836Z,24.10
2023-05-20T10:32:31.520Z,24.40
2023-05-20T10:35:09.449Z,24.90
2023-05-20T10:37:48.399Z,24.70
2023-05-20T10:40:18.435Z,24.50
2023-05-20T10:42:46.297Z,23.90
2023-05-20T10:45:24.723Z,23.50
2023-05-20T10:47:59.247Z,23.40
2023-05-20T10:50:28.387Z,23.40
2023-05-20T10:53:03.407Z,23.30
2023-05-20T10:55:40.699Z,22.70
2023-05-20T10:58:08.044Z,22.30
2023-05-20T11:00:37.425Z,22.30
2023-05-20T11:03:06.759Z,22.50
2023-05-20T11:05:34.714Z,22.70
2023-05-20T11:08:16.900Z,23.10
2023-05-20T11:10:57.254Z,23.60
2023-05-20T11:13:25.870Z,23.30
2023-05-20T11:15:53.507Z,23.30
2023-05-20T11:18:32.289Z,23.50
2023-05-20T11:21:00.287Z,23.90
2023-05-20T11:23:30.529Z,24.20
2023-05-20T11:25:58.238Z,24.30
2023-05-20T11:28:27.450Z,24.00
2023-05-20T11:30:55.497Z,24.10
2023-05-20T11:33:26.805Z,23.60
2023-05-20T11:35:54.757Z,23.30
2023-05-20T11:38:22.090Z,23.30
2023-05-20T11:40:56.627Z,23.40
2023-05-20T11:43:24.654Z,23.70
2023-05-20T11:46:01.669Z,23.60
2023-05-20T11:48:28.988Z,24.10
2023-05-20T11:50:57.587Z,24.50
2023-05-20T11:53:25.838Z,24.30
2023-05-20T11:55:54.215Z,24.30
2023-05-20T11:58:23.330Z,24.30
2023-05-20T12:00:59.157Z,24.70
2023-05-20T12:03:33.459Z,24.90
2023-05-20T12:06:04.360Z,24.30
2023-05-20T12:08:31.516Z,23.70
2023-05-20T12:10:58.563Z,23.80
2023-05-20T12:13:25.692Z,23.90
2023-05-20T12:15:52.889Z,23.80
2023-05-20T12:18:20.062Z,23.40
2023-05-20T12:20:47.138Z,23.40
2023-05-20T12:23:14.192Z,23.30
2023-05-20T12:25:41.271Z,23.70
2023-05-20T12:28:10.387Z,23.90
2023-05-20T12:30:37.857Z,23.80
2023-05-20T12:33:04.935Z,23.80
2023-05-20T12:35:43.069Z,23.90
2023-05-20T12:38:10.747Z,23.70
2023-05-20T12:40:38.566Z,23.50
2023-05-20T12:43:06.449Z,23.70
2023-05-20T12:45:33.677Z,24.00
2023-05-20T12:48:02.205Z,24.40
2023-05-20T12:50:29.656Z,24.70
2023-05-20T12:52:56.696Z,25.10
2023-05-20T12:55:23.869Z,25.40
2023-05-20T12:57:51.268Z,25.50
2023-05-20T13:00:18.626Z,25.30
2023-05-20T13:02:45.898Z,24.80
2023-05-20T13:05:13.943Z,24.30
2023-05-20T13:07:41.161Z,24.00
2023-05-20T13:10:08.940Z,23.70
2023-05-20T13:12:36.355Z,23.50
2023-05-20T13:15:04.517Z,23.50
2023-05-20T13:17:32.228Z,23.60
2023-05-20T13:19:59.589Z,23.50
2023-05-20T13:22:26.655Z,23.50
2023-05-20T13:24:53.723Z,23.30
2023-05-20T13:27:20.775Z,23.00
2023-05-20T13:29:47.954Z,22.60
2023-05-20T13:32:15.109Z,22.50
2023-05-20T13:34:42.158Z,22.40
2023-05-20T13:37:09.343Z,22.60
2023-05-20T13:39:36.638Z,22.60
2023-05-20T13:42:04.618Z,22.40
2023-05-20T13:44:32.720Z,22.60
2023-05-20T13:47:00.306Z,23.00
2023-05-20T13:49:27.781Z,23.20
2023-05-20T13:51:54.855Z,23.80
2023-05-20T13:54:22.332Z,24.40
2023-05-20T13:56:49.482Z,24.40
2023-05-20T13:59:16.826Z,24.20
2023-05-20T14:01:45.579Z,24.00
2023-05-20T14:04:13.440Z,24.10
2023-05-20T14:06:41.276Z,24.10
2023-05-20T14:09:11.124Z,24.10
2023-05-20T14:11:38.248Z,23.70
2023-05-20T14:14:05.498Z,23.40
2023-05-20T14:16:33.141Z,23.10
2023-05-20T14:19:00.438Z,23.10
2023-05-20T14:21:27.568Z,23.00
2023-05-20T14:23:54.585Z,23.10
2023-05-20T14:26:22.000Z,23.00
2023-05-20T14:28:49.333Z,22.80
2023-05-20T14:31:16.699Z,22.70
2023-05-20T14:33:43.884Z,22.90
2023-05-20T14:36:11.782Z,23.30
2023-05-20T14:38:38.894Z,23.30
2023-05-20T14:41:06.032Z,23.20
2023-05-20T14:43:33.181Z,22.90
2023-05-20T14:46:02.420Z,22.70
2023-05-20T14:48:29.573Z,22.70
2023-05-20T14:50:57.702Z,22.70
2023-05-20T14:53:24.857Z,22.50
2023-05-20T14:55:51.956Z,22.50
2023-05-20T14:58:19.010Z,22.40
2023-05-20T15:00:47.154Z,22.10
2023-05-20T15:03:14.291Z,22.10
2023-05-20T15:05:42.395Z,22.00
2023-05-20T15:08:09.716Z,22.10
2023-05-20T15:10:37.288Z,22.10
2023-05-20T15:13:04.668Z,22.20
2023-05-20T15:15:32.017Z,22.10
2023-05-20T15:17:59.284Z,22.10
2023-05-20T15:20:26.538Z,22.40
2023-05-20T15:22:54.381Z,22.70
2023-05-20T15:25:21.588Z,23.00
2023-05-20T15:27:48.632Z,23.20
2023-05-20T15:30:15.896Z,23.50
2023-05-20T15:32:43.145Z,23.50
2023-05-20T15:35:10.758Z,23.50
2023-05-20T15:37:42.016Z,23.50
2023-05-20T15:40:09.750Z,23.40
2023-05-20T15:42:36.746Z,23.20
2023-05-20T15:45:22.848Z,23.20
2023-05-20T15:47:49.946Z,23.30
2023-05-20T15:50:23.149Z,23.20
2023-05-20T15:52:52.980Z,23.10
2023-05-20T15:55:20.401Z,23.10
2023-05-20T15:57:47.446Z,23.10
2023-05-20T16:00:16.025Z,23.10
2023-05-20T16:02:44.179Z,23.10
2023-05-20T16:05:13.638Z,22.80
2023-05-20T16:07:42.949Z,22.70
2023-05-20T16:10:11.546Z,22.60
2023-05-20T16:12:39.754Z,22.60
2023-05-20T16:15:08.343Z,22.60
2023-05-20T16:17:35.634Z,22.50
2023-05-20T16:20:06.774Z,22.50
2023-05-20T16:22:35.927Z,22.40
2023-05-20T16:25:04.718Z,22.20
2023-05-20T16:27:32.690Z,22.10
2023-05-20T16:29:59.739Z,22.00
2023-05-20T16:32:38.581Z,22.00
2023-05-20T16:35:06.896Z,22.00
2023-05-20T16:37:34.649Z,22.00
2023-05-20T16:40:04.434Z,21.90
2023-05-20T16:42:31.557Z,21.80
2023-05-20T16:44:58.627Z,21.80
2023-05-20T16:47:47.213Z,21.90
2023-05-20T16:50:14.298Z,21.90
2023-05-20T16:52:41.953Z,21.90
2023-05-20T16:55:09.521Z,21.80
2023-05-20T16:57:36.887Z,21.80
2023-05-20T17:00:08.494Z,21.70
2023-05-20T17:02:36.222Z,21.60
2023-05-20T17:05:04.535Z,21.60
2023-05-20T17:07:35.853Z,21.60
2023-05-20T17:10:03.038Z,21.60
2023-05-20T17:12:30.125Z,21.60
2023-05-20T17:15:01.536Z,21.50
2023-05-20T17:17:28.586Z,21.50
2023-05-20T17:19:55.670Z,21.40
2023-05-20T17:22:23.820Z,21.40
2023-05-20T17:24:50.819Z,21.30
2023-05-20T17:27:17.908Z,21.30
2023-05-20T17:29:45.059Z,21.30
2023-05-20T17:32:12.299Z,21.30
2023-05-20T17:34:39.363Z,21.30
2023-05-20T17:37:06.495Z,21.20
2023-05-20T17:39:44.613Z,21.20
2023-05-20T17:42:11.650Z,21.20
2023-05-20T17:44:38.678Z,21.10
2023-05-20T17:47:06.168Z,21.10
2023-05-20T17:49:33.163Z,21.00
2023-05-20T17:52:00.255Z,21.00
2023-05-20T17:54:27.293Z,20.90
2023-05-20T17:56:54.344Z,20.90
2023-05-20T17:59:21.342Z,20.80
2023-05-20T18:01:54.794Z,20.80
2023-05-20T18:04:22.069Z,20.70
2023-05-20T18:06:49.204Z,20.60
2023-05-20T18:09:17.351Z,20.50
2023-05-20T18:11:44.473Z,20.40
2023-05-20T18:14:11.656Z,20.40
2023-05-20T18:16:38.814Z,20.30
2023-05-20T18:19:06.241Z,20.20
2023-05-20T18:21:34.384Z,20.10
2023-05-20T18:24:01.444Z,20.10
2023-05-20T18:26:28.546Z,20.00
2023-05-20T18:28:57.694Z,19.90
2023-05-20T18:31:25.577Z,19.90
2023-05-20T18:33:52.648Z,19.80
2023-05-20T18:36:30.539Z,19.70
2023-05-20T18:38:57.922Z,19.60
2023-05-20T18:41:29.585Z,19.50
2023-05-20T18:44:06.307Z,19.40
2023-05-20T18:46:33.505Z,19.40
2023-05-20T18:49:12.502Z,19.20
2023-05-20T18:51:40.495Z,19.10
2023-05-20T18:54:09.687Z,18.90
2023-05-20T18:56:37.156Z,18.90
2023-05-20T18:59:04.203Z,18.90
2023-05-20T19:01:34.033Z,18.80
2023-05-20T19:04:01.514Z,18.80
2023-05-20T19:06:28.564Z,18.80
2023-05-20T19:09:05.963Z,18.80
2023-05-20T19:11:33.283Z,18.70
2023-05-20T19:14:08.567Z,18.70
2023-05-20T19:16:35.980Z,18.50
2023-05-20T19:19:03.151Z,18.40
2023-05-20T19:21:31.490Z,18.40
2023-05-20T19:24:07.234Z,18.30
2023-05-20T19:26:34.575Z,18.20
2023-05-20T19:29:01.854Z,18.10
2023-05-20T19:31:44.014Z,18.10
2023-05-20T19:34:11.095Z,18.10
2023-05-20T19:36:39.924Z,18.00
2023-05-20T19:39:23.321Z,18.00
2023-05-20T19:41:50.560Z,18.00
2023-05-20T19:44:26.020Z,17.90
2023-05-20T19:46:54.032Z,18.00
2023-05-20T19:49:21.399Z,18.00
2023-05-20T19:51:52.478Z,17.90
2023-05-20T19:54:19.467Z,17.90
2023-05-20T19:56:46.561Z,17.90
2023-05-20T19:59:13.616Z,17.90
2023-05-20T20:01:40.997Z,17.90
2023-05-20T20:04:08.172Z,18.00
2023-05-20T20:06:35.262Z,18.00
2023-05-20T20:09:02.286Z,17.90
2023-05-20T20:11:29.376Z,17.90
2023-05-20T20:14:06.500Z,17.90
2023-05-20T20:16:33.613Z,17.90
2023-05-20T20:19:28.625Z,17.90
2023-05-20T20:21:59.019Z,17.80
2023-05-20T20:24:26.405Z,17.70
2023-05-20T20:26:57.101Z,17.80
2023-05-20T20:29:24.277Z,17.80
2023-05-20T20:31:52.598Z,17.70
2023-05-20T20:34:19.780Z,17.70
2023-05-20T20:36:50.469Z,17.70
2023-05-20T20:39:25.988Z,17.70
2023-05-20T20:41:54.738Z,17.70
2023-05-20T20:44:22.784Z,17.70
2023-05-20T20:46:51.148Z,17.70
2023-05-20T20:49:23.172Z,17.70
2023-05-20T20:52:01.223Z,17.70
2023-05-20T20:54:28.374Z,17.80
2023-05-20T20:56:56.756Z,17.80
2023-05-20T20:59:48.030Z,17.80
2023-05-20T21:02:15.403Z,17.80
2023-05-20T21:04:43.258Z,17.80
2023-05-20T21:07:12.239Z,17.90
2023-05-20T21:09:39.296Z,17.80
2023-05-20T21:12:07.946Z,17.80
2023-05-20T21:14:36.800Z,17.80
2023-05-20T21:17:04.083Z,17.80
2023-05-20T21:19:31.366Z,17.80
2023-05-20T21:21:58.532Z,17.70
2023-05-20T21:24:25.750Z,17.80
2023-05-20T21:27:07.227Z,17.80
2023-05-20T21:29:35.426Z,17.80
2023-05-20T21:32:02.645Z,17.80
2023-05-20T21:35:00.135Z,17.80
2023-05-20T21:37:27.305Z,17.80
2023-05-20T21:39:54.385Z,17.70
2023-05-20T21:42:38.008Z,17.70
2023-05-20T21:45:05.890Z,17.70
2023-05-20T21:47:39.249Z,17.60
2023-05-20T21:50:07.479Z,17.60
2023-05-20T21:52:34.568Z,17.60
2023-05-20T21:55:01.817Z,17.60
2023-05-20T21:57:29.056Z,17.60
2023-05-20T21:59:56.283Z,17.60
2023-05-20T22:02:23.581Z,17.50
2023-05-20T22:04:50.795Z,17.50
2023-05-20T22:07:18.793Z,17.50
2023-05-20T22:09:47.949Z,17.40
2023-05-20T22:12:15.662Z,17.30
2023-05-20T22:14:42.837Z,17.30
2023-05-20T22:17:10.745Z,17.20
2023-05-20T22:19:37.938Z,17.20
2023-05-20T22:22:05.155Z,17.20
2023-05-20T22:24:34.263Z,17.20
2023-05-20T22:27:01.895Z,17.20
2023-05-20T22:29:33.240Z,17.20
2023-05-20T22:32:00.536Z,17.20
2023-05-20T22:34:27.794Z,17.20
2023-05-20T22:36:58.330Z,17.10
2023-05-20T22:39:25.484Z,17.10
2023-05-20T22:41:52.639Z,17.00
2023-05-20T22:44:42.677Z,17.00
2023-05-20T22:47:09.747Z,16.90
2023-05-20T22:49:39.578Z,16.90
2023-05-20T22:52:25.569Z,16.80
2023-05-20T22:54:52.659Z,16.70
2023-05-20T22:57:19.718Z,16.70
2023-05-20T23:00:05.001Z,16.70
2023-05-20T23:02:32.049Z,16.60
2023-05-20T23:04:59.159Z,16.60
2023-05-20T23:07:29.646Z,16.60
2023-05-20T23:09:56.661Z,16.50
2023-05-20T23:12:23.776Z,16.50
2023-05-20T23:15:25.454Z,16.50
2023-05-20T23:17:52.555Z,16.60
2023-05-20T23:20:35.078Z,16.60
2023-05-20T23:23:10.639Z,16.60
2023-05-20T23:25:38.989Z,16.60
2023-05-20T23:32:00.749Z,16.50
2023-05-20T23:38:14.567Z,16.40
2023-05-20T23:44:28.656Z,16.20
2023-05-20T23:46:55.872Z,16.20
2023-05-20T23:49:27.332Z,16.20
2023-05-20T23:52:40.534Z,16.10
2023-05-20T23:55:12.953Z,16.10
2023-05-20T23:57:42.868Z,16.00
